Time;durP1;ratioP1;P1;durP2;ratioP2;P2;SDS_P1;SDS_P2;PMS_P1;PMS_P2;Temp;Humidity;BMP_temperature;BMP_pressure;BME280_temperature;BME280_humidity;BME280_pressure;Samples;Min_cycle;Max_cycle;Signal;HPM_P1;HPM_P2
2021/11/27 00:00:43;;;;;;;4.23;3.93;;;1.10;99.90;1.10;94653.00;;;;5067056;28;20473;-79
2021/11/27 00:03:32;;;;;;;4.50;4.07;;;1.20;99.90;1.00;94656.00;;;;5063619;28;20453;-79
2021/11/27 00:06:22;;;;;;;6.07;4.37;;;1.20;99.90;1.00;94656.00;;;;5067505;28;20796;-78
2021/11/27 00:09:11;;;;;;;5.13;4.63;;;1.20;99.90;0.90;94650.00;;;;5060428;28;20428;-79
2021/11/27 00:12:00;;;;;;;5.93;4.87;;;1.20;99.90;0.90;94651.00;;;;5068757;28;20447;-78
2021/11/27 00:14:50;;;;;;;5.37;4.87;;;1.20;99.90;1.10;94642.00;;;;5058414;28;20431;-78
2021/11/27 00:17:40;;;;;;;4.70;4.30;;;1.20;99.90;1.20;94657.00;;;;5069666;28;20430;-78
2021/11/27 00:20:33;;;;;;;4.67;4.27;;;1.20;99.90;1.00;94637.00;;;;5068645;28;20565;-79
2021/11/27 00:23:23;;;;;;;4.30;3.90;;;1.20;99.90;0.70;94646.00;;;;5061194;28;20435;-79
2021/11/27 00:26:15;;;;;;;4.03;3.63;;;1.20;99.90;0.40;94654.00;;;;5065975;28;20437;-78
2021/11/27 00:29:05;;;;;;;4.33;3.93;;;1.10;99.90;0.70;94649.00;;;;5057118;28;20439;-79
2021/11/27 00:31:55;;;;;;;4.13;3.70;;;1.00;99.90;0.80;94658.00;;;;5065878;28;20463;-79
2021/11/27 00:34:44;;;;;;;3.43;3.10;;;1.00;99.90;0.90;94644.00;;;;5067828;28;20949;-79
2021/11/27 00:37:33;;;;;;;5.53;4.90;;;1.10;99.90;0.90;94653.00;;;;5057539;28;20481;-79
2021/11/27 00:40:22;;;;;;;5.73;5.03;;;1.10;99.90;0.80;94649.00;;;;5069388;28;20852;-79
2021/11/27 00:43:13;;;;;;;5.57;4.10;;;1.10;99.90;0.90;94648.00;;;;5071495;28;20446;-79
2021/11/27 00:46:03;;;;;;;4.80;4.37;;;1.10;99.90;0.90;94640.00;;;;5072598;28;20496;-76
2021/11/27 00:48:53;;;;;;;5.00;4.60;;;1.10;99.90;1.00;94634.00;;;;5067783;28;20434;-79
2021/11/27 00:51:42;;;;;;;5.30;4.33;;;1.10;99.90;1.10;94635.00;;;;5072615;28;20438;-79
2021/11/27 00:54:31;;;;;;;5.80;4.40;;;1.10;99.90;1.10;94617.00;;;;5069243;28;20414;-79
2021/11/27 00:57:20;;;;;;;5.70;4.63;;;1.20;99.90;1.10;94637.00;;;;5071877;28;20956;-79
2021/11/27 01:00:13;;;;;;;4.57;4.10;;;1.10;99.90;0.90;94646.00;;;;5067562;28;20481;-79
2021/11/27 01:03:07;;;;;;;4.63;4.03;;;1.20;99.90;0.80;94655.00;;;;5067072;28;20956;-80
2021/11/27 01:06:00;;;;;;;5.00;4.40;;;1.10;99.90;0.70;94646.00;;;;5059580;28;20453;-79
2021/11/27 01:08:50;;;;;;;4.93;4.13;;;1.10;99.90;0.90;94644.00;;;;5072157;28;20955;-78
2021/11/27 01:11:46;;;;;;;4.37;3.97;;;1.10;99.90;1.00;94639.00;;;;5069832;28;20453;-79
2021/11/27 01:14:36;;;;;;;5.60;3.87;;;1.10;99.90;1.00;94641.00;;;;5055988;28;20437;-78
2021/11/27 01:17:25;;;;;;;5.13;4.30;;;1.10;99.90;1.00;94653.00;;;;5069222;28;20446;-78
2021/11/27 01:20:19;;;;;;;5.70;4.30;;;1.10;99.90;1.00;94636.00;;;;5071195;28;20474;-78
2021/11/27 01:23:10;;;;;;;7.07;4.30;;;1.20;99.90;1.10;94633.00;;;;5071589;28;20460;-78
2021/11/27 01:25:59;;;;;;;7.83;4.17;;;1.20;99.90;1.00;94635.00;;;;5069947;28;20951;-79
2021/11/27 01:28:48;;;;;;;5.00;4.50;;;1.20;99.90;0.90;94634.00;;;;5069764;28;20796;-78
2021/11/27 01:31:38;;;;;;;4.33;3.93;;;1.20;99.90;0.80;94642.00;;;;5069477;28;20438;-78
2021/11/27 01:34:27;;;;;;;6.03;4.20;;;1.10;99.90;0.80;94635.00;;;;5063963;28;20441;-78
2021/11/27 01:37:16;;;;;;;5.50;4.87;;;1.10;99.90;1.00;94635.00;;;;5067426;28;20423;-79
2021/11/27 01:40:12;;;;;;;5.27;4.53;;;1.10;99.90;1.00;94634.00;;;;5068152;28;20458;-78
2021/11/27 01:43:01;;;;;;;4.83;4.33;;;1.10;99.90;1.10;94622.00;;;;5068042;28;20442;-78
2021/11/27 01:45:52;;;;;;;8.10;6.00;;;1.10;99.90;1.10;94610.00;;;;5075917;28;20425;-78
2021/11/27 01:48:41;;;;;;;6.90;6.20;;;1.20;99.90;1.20;94611.00;;;;5067941;28;20926;-78
2021/11/27 01:51:30;;;;;;;6.17;5.00;;;1.20;99.90;0.90;94619.00;;;;5069826;28;20453;-79
2021/11/27 01:54:19;;;;;;;7.87;6.27;;;1.20;99.90;1.10;94606.00;;;;5068208;28;20418;-78
2021/11/27 01:57:10;;;;;;;5.87;5.27;;;1.30;99.90;1.10;94593.00;;;;5068733;28;20443;-78
2021/11/27 02:00:00;;;;;;;8.30;6.20;;;1.20;99.90;1.10;94605.00;;;;5067598;28;20447;-78
2021/11/27 02:02:50;;;;;;;8.53;5.97;;;1.70;99.90;1.10;94605.00;;;;5069117;28;20538;-78
2021/11/27 02:05:40;;;;;;;7.67;6.17;;;1.30;99.90;1.10;94615.00;;;;5070153;28;20457;-78
2021/11/27 02:08:29;;;;;;;5.70;5.10;;;1.00;99.90;0.80;94631.00;;;;5069876;28;20441;-78
2021/11/27 02:11:22;;;;;;;6.67;5.60;;;1.20;99.90;0.70;94613.00;;;;5068241;28;20435;-79
2021/11/27 02:14:12;;;;;;;7.87;4.90;;;1.20;99.90;0.80;94615.00;;;;5069098;28;20441;-78
2021/11/27 02:17:01;;;;;;;5.97;5.20;;;1.20;99.90;0.80;94612.00;;;;5069433;28;20426;-79
2021/11/27 02:19:50;;;;;;;5.87;5.27;;;1.10;99.90;0.90;94601.00;;;;5068858;28;20430;-79
2021/11/27 02:22:41;;;;;;;7.73;5.43;;;1.10;99.90;0.90;94605.00;;;;5068970;28;20521;-78
2021/11/27 02:25:32;;;;;;;6.50;5.57;;;1.10;99.90;1.00;94604.00;;;;5065807;28;20426;-78
2021/11/27 02:28:21;;;;;;;9.93;6.27;;;1.10;99.90;1.10;94611.00;;;;5067913;28;20436;-79
2021/11/27 02:31:10;;;;;;;5.93;5.33;;;1.10;99.90;1.00;94613.00;;;;5068408;28;20418;-78
2021/11/27 02:33:59;;;;;;;7.10;6.40;;;1.20;99.90;1.10;94603.00;;;;5066369;28;20427;-78
2021/11/27 02:36:52;;;;;;;8.60;7.50;;;1.20;99.90;1.20;94610.00;;;;5069693;28;20434;-79
2021/11/27 02:39:43;;;;;;;9.47;7.07;;;1.20;99.90;1.20;94606.00;;;;5068668;28;20427;-79
2021/11/27 02:42:32;;;;;;;8.80;7.43;;;1.30;99.90;1.30;94610.00;;;;5069840;28;20446;-78
2021/11/27 02:45:21;;;;;;;9.60;7.37;;;1.30;99.90;1.30;94619.00;;;;5068872;28;20748;-79
2021/11/27 02:48:09;;;;;;;9.80;8.13;;;1.30;99.90;1.20;94605.00;;;;5065573;28;20431;-79
2021/11/27 02:50:59;;;;;;;10.03;8.50;;;1.30;99.90;1.20;94613.00;;;;5066551;28;20893;-78
2021/11/27 02:53:49;;;;;;;9.33;7.87;;;1.40;99.90;1.20;94617.00;;;;5067928;28;20842;-79
2021/11/27 02:56:40;;;;;;;11.97;7.53;;;2.10;99.90;1.30;94616.00;;;;5062343;28;20435;-78
2021/11/27 02:59:30;;;;;;;10.33;7.40;;;1.40;99.90;1.40;94605.00;;;;5066398;28;20833;-79
2021/11/27 03:02:19;;;;;;;10.90;7.47;;;1.40;99.90;1.30;94606.00;;;;5060357;28;20469;-78
2021/11/27 03:05:09;;;;;;;8.30;7.40;;;1.40;99.90;1.10;94617.00;;;;5057626;28;20426;-79
2021/11/27 03:07:57;;;;;;;7.97;7.17;;;1.40;99.90;1.10;94623.00;;;;5070104;28;20470;-79
2021/11/27 03:10:47;;;;;;;10.20;7.73;;;1.40;99.90;1.20;94609.00;;;;5069465;28;20434;-79
2021/11/27 03:13:41;;;;;;;10.47;7.13;;;1.30;99.90;1.00;94613.00;;;;5066864;28;20415;-79
2021/11/27 03:16:34;;;;;;;11.70;7.80;;;1.30;99.90;1.00;94616.00;;;;5068601;28;20427;-79
2021/11/27 03:19:33;;;;;;;9.80;7.40;;;1.30;99.90;1.00;94607.00;;;;5069334;28;20433;-78
2021/11/27 03:22:22;;;;;;;8.20;7.40;;;1.20;99.90;0.90;94623.00;;;;5069962;28;20482;-79
2021/11/27 03:25:12;;;;;;;9.00;7.93;;;1.30;99.90;0.90;94630.00;;;;5064711;28;20526;-79
2021/11/27 03:28:01;;;;;;;13.30;8.80;;;1.20;99.90;0.90;94616.00;;;;5069861;28;20423;-79
2021/11/27 03:30:51;;;;;;;8.90;7.57;;;1.20;99.90;0.90;94608.00;;;;5070196;28;20510;-79
2021/11/27 03:33:41;;;;;;;7.17;6.47;;;1.10;99.90;0.90;94602.00;;;;5065628;28;20934;-78
2021/11/27 03:36:30;;;;;;;7.90;6.37;;;1.10;99.90;0.90;94609.00;;;;5063549;28;20427;-78
2021/11/27 03:39:19;;;;;;;8.17;6.37;;;1.10;99.90;0.70;94609.00;;;;5067145;28;20441;-78
2021/11/27 03:42:12;;;;;;;6.53;5.97;;;1.10;99.90;0.60;94606.00;;;;5066432;28;20530;-79
2021/11/27 03:45:02;;;;;;;8.33;6.53;;;1.00;99.90;0.60;94611.00;;;;5069578;28;20450;-79
2021/11/27 03:48:12;;;;;;;6.90;6.10;;;1.00;99.90;0.70;94612.00;;;;5068778;28;20905;-79
2021/11/27 03:51:07;;;;;;;7.27;6.17;;;0.90;99.90;0.60;94618.00;;;;5069714;28;20910;-78
2021/11/27 03:53:57;;;;;;;7.67;6.47;;;0.90;99.90;0.70;94609.00;;;;5068605;28;20434;-79
2021/11/27 03:56:46;;;;;;;7.40;6.30;;;0.90;99.90;0.70;94615.00;;;;5063339;28;20438;-79
2021/11/27 03:59:36;;;;;;;8.30;6.30;;;0.90;99.90;0.80;94618.00;;;;5068282;28;20451;-79
2021/11/27 04:02:24;;;;;;;6.33;5.73;;;0.90;99.90;0.70;94605.00;;;;5064216;28;20484;-79
2021/11/27 04:05:17;;;;;;;6.30;5.03;;;0.90;99.90;0.80;94606.00;;;;5072629;28;20422;-79
2021/11/27 04:08:06;;;;;;;7.63;6.13;;;0.90;99.90;0.80;94613.00;;;;5055942;28;20423;-80
2021/11/27 04:10:55;;;;;;;9.07;7.13;;;0.90;99.90;0.80;94616.00;;;;5068410;28;20641;-79
2021/11/27 04:13:44;;;;;;;7.70;6.37;;;1.00;99.90;0.80;94620.00;;;;5069244;28;20439;-79
2021/11/27 04:16:33;;;;;;;7.37;6.67;;;1.00;99.90;0.70;94607.00;;;;5064722;28;20791;-79
2021/11/27 04:19:22;;;;;;;8.00;7.00;;;0.90;99.90;0.80;94618.00;;;;5066754;28;20470;-78
2021/11/27 04:22:13;;;;;;;6.93;6.23;;;0.90;99.90;0.70;94607.00;;;;5063252;28;20474;-78
2021/11/27 04:25:01;;;;;;;6.70;6.00;;;0.90;99.90;0.80;94606.00;;;;5068290;28;20466;-78
2021/11/27 04:27:51;;;;;;;6.60;5.63;;;1.00;99.90;0.80;94606.00;;;;5069124;28;20435;-78
2021/11/27 04:30:42;;;;;;;7.23;6.50;;;0.90;99.90;0.70;94607.00;;;;5068437;28;20434;-79
2021/11/27 04:33:31;;;;;;;7.77;6.97;;;0.90;99.90;0.70;94591.00;;;;5065790;28;21228;-79
2021/11/27 04:36:21;;;;;;;8.57;7.77;;;0.90;99.90;0.70;94599.00;;;;5067705;28;20426;-78
2021/11/27 04:39:11;;;;;;;8.90;7.70;;;0.90;99.90;0.70;94592.00;;;;5067453;28;20450;-79
2021/11/27 04:42:00;;;;;;;8.03;6.60;;;0.90;99.90;0.70;94586.00;;;;5067033;28;20478;-79
2021/11/27 04:44:49;;;;;;;7.13;6.43;;;0.90;99.90;0.70;94599.00;;;;5070150;28;20445;-79
2021/11/27 04:47:38;;;;;;;6.70;6.00;;;1.80;99.90;0.60;94597.00;;;;5067767;28;20434;-78
2021/11/27 04:50:29;;;;;;;6.73;6.13;;;0.90;99.90;0.70;94593.00;;;;5059691;28;20795;-80
2021/11/27 04:53:18;;;;;;;6.40;5.80;;;0.90;99.90;0.70;94606.00;;;;5069022;28;20483;-79
2021/11/27 04:56:08;;;;;;;7.00;6.30;;;0.80;99.90;0.70;94604.00;;;;5069057;28;20525;-79
2021/11/27 04:58:57;;;;;;;5.80;5.23;;;0.80;99.90;0.50;94593.00;;;;5068700;28;20960;-78
2021/11/27 05:01:46;;;;;;;7.23;6.57;;;0.80;99.90;0.40;94600.00;;;;5065939;28;20493;-79
2021/11/27 05:04:36;;;;;;;7.07;6.37;;;0.70;99.90;0.30;94598.00;;;;5067311;28;20423;-79
2021/11/27 05:07:24;;;;;;;6.80;6.17;;;0.70;99.90;0.30;94619.00;;;;5067187;28;20445;-80
2021/11/27 05:10:13;;;;;;;6.00;5.40;;;0.70;99.90;0.20;94604.00;;;;5068059;28;20429;-79
2021/11/27 05:13:04;;;;;;;6.83;6.13;;;0.70;99.90;0.40;94607.00;;;;5061516;28;20525;-78
2021/11/27 05:15:53;;;;;;;5.27;4.70;;;0.70;99.90;0.40;94612.00;;;;5068087;28;20419;-78
2021/11/27 05:18:43;;;;;;;6.87;5.97;;;0.70;99.90;0.40;94624.00;;;;5060605;28;20425;-79
2021/11/27 05:21:35;;;;;;;6.27;5.73;;;0.80;99.90;0.40;94619.00;;;;5065440;28;20993;-78
2021/11/27 05:24:25;;;;;;;5.80;5.30;;;0.80;99.90;0.50;94626.00;;;;5065315;28;21036;-79
2021/11/27 05:27:15;;;;;;;7.33;5.63;;;0.80;99.90;0.40;94625.00;;;;5069334;28;20430;-79
2021/11/27 05:30:09;;;;;;;5.97;5.00;;;0.80;99.90;0.20;94627.00;;;;5070181;28;20423;-79
2021/11/27 05:33:13;;;;;;;5.33;4.83;;;0.80;99.90;0.30;94628.00;;;;5068889;28;20445;-79
2021/11/27 05:36:01;;;;;;;5.13;4.63;;;0.80;99.90;0.40;94624.00;;;;5070259;28;20430;-80
2021/11/27 05:38:51;;;;;;;6.00;5.03;;;0.80;99.90;0.50;94641.00;;;;5070745;28;20453;-78
2021/11/27 05:41:40;;;;;;;10.60;5.17;;;0.70;99.90;0.50;94646.00;;;;5069416;28;21247;-78
2021/11/27 05:44:28;;;;;;;7.33;6.60;;;0.80;99.90;0.40;94661.00;;;;5072766;28;20437;-78
2021/11/27 05:47:19;;;;;;;4.87;4.47;;;0.80;99.90;0.40;94659.00;;;;5075118;28;20430;-79
2021/11/27 05:50:09;;;;;;;5.73;4.63;;;0.80;99.90;0.40;94666.00;;;;5068513;28;20921;-79
2021/11/27 05:52:59;;;;;;;5.53;5.03;;;0.80;99.90;0.50;94663.00;;;;5070736;28;20814;-79
2021/11/27 05:55:50;;;;;;;4.40;4.10;;;0.80;99.90;0.40;94662.00;;;;5070404;28;20437;-79
2021/11/27 05:58:39;;;;;;;5.67;4.10;;;0.80;99.90;0.30;94665.00;;;;5069516;28;20435;-79
2021/11/27 06:01:27;;;;;;;4.27;3.77;;;0.80;99.90;0.30;94658.00;;;;5071991;28;20465;-79
2021/11/27 06:04:18;;;;;;;4.30;3.13;;;0.80;99.90;0.40;94668.00;;;;5069674;28;20711;-79
2021/11/27 06:07:06;;;;;;;3.30;3.00;;;0.80;99.90;0.30;94655.00;;;;5067487;28;20431;-79
2021/11/27 06:09:56;;;;;;;2.93;2.70;;;0.70;99.90;0.30;94657.00;;;;5067706;28;20882;-79
2021/11/27 06:12:45;;;;;;;3.63;3.30;;;0.80;99.90;0.30;94658.00;;;;5067954;28;20457;-79
2021/11/27 06:15:34;;;;;;;3.53;3.23;;;0.70;99.90;0.30;94656.00;;;;5065315;28;21284;-79
2021/11/27 06:18:23;;;;;;;3.17;2.87;;;0.70;99.90;0.40;94652.00;;;;5068614;28;21080;-79
2021/11/27 06:21:13;;;;;;;4.63;3.17;;;0.70;99.90;0.40;94659.00;;;;5060128;28;21096;-79
2021/11/27 06:24:02;;;;;;;4.03;3.63;;;0.70;99.90;0.30;94656.00;;;;5070523;28;20469;-78
2021/11/27 06:26:51;;;;;;;2.97;2.40;;;0.70;99.90;0.40;94670.00;;;;5060238;28;20469;-78
2021/11/27 06:29:40;;;;;;;3.13;1.70;;;0.70;99.90;0.40;94650.00;;;;5069746;28;20465;-77
2021/11/27 06:32:29;;;;;;;1.33;1.23;;;0.70;99.90;0.40;94648.00;;;;5074089;28;20463;-79
2021/11/27 06:35:18;;;;;;;1.27;1.17;;;0.70;99.90;0.40;94647.00;;;;5057673;28;20814;-79
2021/11/27 06:38:09;;;;;;;1.10;1.10;;;0.70;99.90;0.40;94647.00;;;;5057116;28;20422;-79
2021/11/27 06:40:57;;;;;;;3.97;3.57;;;0.70;99.90;0.40;94638.00;;;;5055410;28;20430;-79
2021/11/27 06:43:47;;;;;;;4.23;3.87;;;0.80;99.90;0.40;94634.00;;;;5057316;28;20473;-78
2021/11/27 06:46:35;;;;;;;10.53;4.63;;;0.80;99.90;0.20;94642.00;;;;5055495;28;20453;-78
2021/11/27 06:49:25;;;;;;;3.90;3.57;;;0.80;99.90;0.20;94632.00;;;;5056132;28;20437;-78
2021/11/27 06:52:15;;;;;;;4.13;3.83;;;0.70;99.90;0.30;94645.00;;;;5054459;28;20464;-76
2021/11/27 06:55:06;;;;;;;4.37;3.63;;;0.80;99.90;0.20;94640.00;;;;5052405;28;20453;-76
2021/11/27 06:57:55;;;;;;;3.53;3.23;;;0.70;99.90;0.10;94646.00;;;;5053383;28;20458;-78
2021/11/27 07:00:44;;;;;;;4.80;4.20;;;0.70;99.90;0.20;94651.00;;;;5055827;28;20540;-78
2021/11/27 07:03:33;;;;;;;6.00;5.43;;;0.70;99.90;0.30;94654.00;;;;5057555;28;20471;-78
2021/11/27 07:06:22;;;;;;;4.70;4.17;;;0.70;99.90;0.30;94658.00;;;;5052402;28;20427;-77
2021/11/27 07:09:12;;;;;;;5.43;4.67;;;0.70;99.90;0.20;94668.00;;;;5052334;28;20439;-77
2021/11/27 07:12:02;;;;;;;4.77;4.37;;;0.70;99.90;0.30;94666.00;;;;5053332;28;20980;-77
2021/11/27 07:14:51;;;;;;;4.57;4.07;;;0.70;99.90;0.40;94665.00;;;;5051645;28;20450;-77
2021/11/27 07:17:40;;;;;;;3.07;2.87;;;0.70;99.90;0.40;94668.00;;;;5048988;28;20434;-77
2021/11/27 07:20:33;;;;;;;4.80;2.93;;;0.80;99.90;0.30;94678.00;;;;5051945;28;20442;-76
2021/11/27 07:23:22;;;;;;;3.80;3.20;;;0.80;99.90;0.40;94683.00;;;;5058882;28;20467;-77
2021/11/27 07:26:11;;;;;;;4.17;3.73;;;0.80;99.90;0.50;94680.00;;;;5052844;28;20523;-77
2021/11/27 07:29:02;;;;;;;14.03;8.70;;;0.80;99.90;0.50;94679.00;;;;5048563;28;20434;-77
2021/11/27 07:31:50;;;;;;;12.47;7.50;;;0.80;99.90;0.60;94666.00;;;;5054858;28;20468;-76
2021/11/27 07:34:40;;;;;;;13.10;7.77;;;0.80;99.90;0.60;94675.00;;;;5055770;28;20468;-77
2021/11/27 07:37:28;;;;;;;5.80;4.93;;;0.90;99.90;0.50;94669.00;;;;5055303;28;20445;-78
2021/11/27 07:40:17;;;;;;;3.33;3.03;;;0.90;99.90;0.30;94668.00;;;;5054119;28;20824;-77
2021/11/27 07:43:07;;;;;;;8.47;5.10;;;0.90;99.90;0.20;94656.00;;;;5053092;28;20463;-76
2021/11/27 07:45:57;;;;;;;4.00;3.57;;;0.80;99.90;0.30;94655.00;;;;5069496;28;20421;-77
2021/11/27 07:48:46;;;;;;;2.90;2.70;;;0.80;99.90;0.30;94666.00;;;;5065716;28;20441;-78
2021/11/27 07:51:34;;;;;;;3.60;3.23;;;0.80;99.90;0.50;94657.00;;;;5069005;28;20832;-76
2021/11/27 07:54:23;;;;;;;3.27;3.03;;;0.90;99.90;0.70;94646.00;;;;5060773;28;20430;-76
2021/11/27 07:57:12;;;;;;;2.27;2.07;;;0.90;99.90;0.70;94653.00;;;;5063203;28;20438;-76
2021/11/27 08:00:01;;;;;;;2.27;2.07;;;1.00;99.90;0.80;94650.00;;;;5063766;28;20426;-75
2021/11/27 08:02:51;;;;;;;2.57;2.37;;;1.00;99.90;0.90;94639.00;;;;5051762;28;21283;-77
2021/11/27 08:05:40;;;;;;;2.77;2.37;;;1.10;99.90;0.90;94658.00;;;;5061414;28;21166;-76
2021/11/27 08:08:29;;;;;;;2.30;2.10;;;1.10;99.90;0.70;94667.00;;;;5064284;28;20803;-75
2021/11/27 08:11:19;;;;;;;3.90;3.23;;;1.10;99.90;0.90;94662.00;;;;5052734;28;20466;-75
2021/11/27 08:14:08;;;;;;;3.60;3.30;;;1.10;99.90;0.90;94679.00;;;;5062195;28;20957;-75
2021/11/27 08:16:57;;;;;;;2.53;2.33;;;1.10;99.90;1.20;94676.00;;;;5060706;28;20441;-74
2021/11/27 08:19:47;;;;;;;3.00;2.80;;;1.20;99.90;1.00;94670.00;;;;5058956;28;20659;-76
2021/11/27 08:22:36;;;;;;;2.60;2.30;;;1.30;99.90;1.30;94660.00;;;;5054272;28;20450;-74
2021/11/27 08:25:25;;;;;;;3.13;2.83;;;1.30;99.90;1.60;94642.00;;;;5060978;28;20414;-75
2021/11/27 08:28:14;;;;;;;2.67;1.63;;;1.50;99.90;1.30;94626.00;;;;5054895;28;20431;-75
2021/11/27 08:31:04;;;;;;;1.40;1.30;;;1.60;99.90;1.50;94635.00;;;;5057238;28;21139;-73
2021/11/27 08:33:53;;;;;;;1.93;1.50;;;1.70;99.90;1.80;94644.00;;;;5052828;28;20495;-76
2021/11/27 08:36:43;;;;;;;1.77;1.63;;;1.70;99.90;1.90;94624.00;;;;5047160;28;20430;-76
2021/11/27 08:39:32;;;;;;;1.80;1.70;;;1.80;99.90;2.20;94641.00;;;;5061147;28;20983;-76
2021/11/27 08:42:22;;;;;;;1.93;1.83;;;1.90;99.90;2.20;94652.00;;;;5050301;28;20463;-76
2021/11/27 08:45:13;;;;;;;1.87;1.77;;;2.00;99.90;2.20;94657.00;;;;5045573;28;20470;-80
2021/11/27 08:48:02;;;;;;;1.97;1.87;;;2.10;99.90;1.70;94647.00;;;;5060939;28;21293;-77
2021/11/27 08:50:50;;;;;;;1.70;1.60;;;2.10;99.90;1.30;94649.00;;;;5043160;28;20831;-76
2021/11/27 08:53:42;;;;;;;2.57;2.37;;;2.00;99.90;1.20;94654.00;;;;5050485;28;20495;-76
2021/11/27 08:56:30;;;;;;;2.47;2.27;;;1.90;99.90;1.50;94662.00;;;;5060878;28;20426;-75
2021/11/27 08:59:19;;;;;;;2.30;2.10;;;1.80;99.90;1.60;94658.00;;;;5058436;28;20433;-76
2021/11/27 09:02:08;;;;;;;2.60;2.40;;;1.80;99.90;1.70;94659.00;;;;5061773;28;20469;-76
2021/11/27 09:04:57;;;;;;;2.60;2.37;;;1.80;99.90;1.60;94655.00;;;;5063511;28;20464;-76
2021/11/27 09:07:46;;;;;;;1.93;1.83;;;1.80;99.90;1.30;94648.00;;;;5066714;28;20677;-75
2021/11/27 09:10:37;;;;;;;1.97;1.87;;;1.80;99.90;1.50;94657.00;;;;5067598;28;20425;-76
2021/11/27 09:13:27;;;;;;;2.90;2.00;;;1.80;99.90;1.50;94648.00;;;;5064860;28;20941;-75
2021/11/27 09:16:17;;;;;;;1.90;1.80;;;1.70;99.90;1.40;94654.00;;;;5066855;28;20426;-75
2021/11/27 09:19:20;;;;;;;3.50;3.20;;;1.70;99.90;1.50;94658.00;;;;5067287;28;20491;-75
2021/11/27 09:22:09;;;;;;;5.00;3.60;;;1.70;99.90;1.50;94648.00;;;;5052010;28;20453;-76
2021/11/27 09:25:01;;;;;;;3.00;2.70;;;1.70;99.90;1.30;94651.00;;;;5066775;28;20474;-77
2021/11/27 09:27:51;;;;;;;2.37;2.17;;;1.70;99.90;1.20;94656.00;;;;5042247;28;20439;-75
2021/11/27 09:30:40;;;;;;;2.20;2.10;;;1.70;99.90;1.00;94647.00;;;;5064813;28;20788;-74
2021/11/27 09:33:30;;;;;;;6.07;2.00;;;1.60;99.90;1.20;94648.00;;;;5063870;28;20461;-73
2021/11/27 09:36:21;;;;;;;3.07;2.77;;;1.60;99.90;1.40;94658.00;;;;5059295;28;20800;-74
2021/11/27 09:39:13;;;;;;;3.30;3.00;;;1.50;99.90;1.40;94650.00;;;;5059598;28;20441;-74
2021/11/27 09:42:03;;;;;;;5.87;3.10;;;1.70;99.90;1.30;94636.00;;;;5049449;28;20465;-74
2021/11/27 09:44:55;;;;;;;2.93;2.70;;;1.60;99.90;1.30;94630.00;;;;5050857;28;20490;-74
2021/11/27 09:47:46;;;;;;;3.07;2.77;;;1.60;99.90;1.30;94627.00;;;;5056924;28;20419;-74
2021/11/27 09:50:35;;;;;;;2.37;2.17;;;1.60;99.90;1.20;94629.00;;;;5067854;28;20441;-75
2021/11/27 09:53:25;;;;;;;3.27;2.97;;;1.50;99.90;1.20;94629.00;;;;5066648;28;20422;-75
2021/11/27 09:56:15;;;;;;;2.73;2.53;;;1.50;99.90;1.30;94631.00;;;;5066571;28;20431;-74
2021/11/27 09:59:04;;;;;;;4.27;2.80;;;1.50;99.90;1.30;94629.00;;;;5066661;28;20430;-74
2021/11/27 10:01:56;;;;;;;4.10;3.67;;;1.60;99.90;1.30;94630.00;;;;5065508;28;20532;-76
2021/11/27 10:04:52;;;;;;;3.67;2.97;;;1.60;99.90;1.40;94614.00;;;;5068691;28;20470;-76
2021/11/27 10:07:42;;;;;;;4.20;3.80;;;1.50;99.90;1.20;94620.00;;;;5052188;28;20426;-75
2021/11/27 10:10:22;;;;;;;3.37;3.07;;;1.60;99.90;1.30;94617.00;;;;5119745;23;20500;-80
2021/11/27 10:13:11;;;;;;;2.70;2.50;;;1.60;99.90;1.10;94625.00;;;;5074340;28;20438;-79
2021/11/27 10:16:00;;;;;;;5.53;3.13;;;2.10;99.90;1.10;94621.00;;;;5082859;28;20434;-79
2021/11/27 10:19:12;;;;;;;3.40;3.10;;;2.70;99.90;1.10;94624.00;;;;5067864;28;20814;-79
2021/11/27 10:22:03;;;;;;;3.70;2.83;;;2.00;99.90;1.10;94633.00;;;;5065248;28;20439;-80
2021/11/27 10:24:54;;;;;;;3.47;3.17;;;2.30;99.90;1.10;94632.00;;;;5066124;28;20471;-79
2021/11/27 10:27:44;;;;;;;4.10;3.53;;;1.60;99.90;1.40;94632.00;;;;5063353;28;20463;-79
2021/11/27 10:30:52;;;;;;;5.30;3.87;;;1.60;99.90;1.60;94618.00;;;;5059028;28;20431;-78
2021/11/27 10:33:42;;;;;;;3.40;3.10;;;1.60;99.90;1.70;94629.00;;;;5062873;28;20458;-78
2021/11/27 10:36:34;;;;;;;3.93;3.53;;;1.90;99.90;1.70;94626.00;;;;5068521;28;20428;-77
2021/11/27 10:39:23;;;;;;;4.67;3.70;;;1.80;99.90;1.70;94632.00;;;;5054665;28;20904;-79
2021/11/27 10:42:12;;;;;;;3.70;3.40;;;1.80;99.90;1.70;94623.00;;;;5043985;28;20853;-79
2021/11/27 10:45:16;;;;;;;2.70;2.50;;;1.90;99.90;1.20;94618.00;;;;5040455;28;20470;-80
2021/11/27 10:48:11;;;;;;;3.73;3.40;;;1.90;99.90;1.10;94620.00;;;;5046410;28;21000;-79
2021/11/27 10:51:02;;;;;;;3.93;3.63;;;1.80;99.90;0.90;94628.00;;;;5056981;28;20435;-80
2021/11/27 10:53:58;;;;;;;5.93;5.10;;;1.50;99.90;1.10;94628.00;;;;5054078;28;20432;-80
2021/11/27 10:56:50;;;;;;;5.57;5.00;;;1.60;99.90;1.10;94625.00;;;;5041993;28;20432;-78
2021/11/27 10:59:41;;;;;;;5.43;4.10;;;1.50;99.90;1.00;94630.00;;;;5047768;28;20430;-80
2021/11/27 11:02:34;;;;;;;6.13;3.83;;;1.50;99.90;1.00;94635.00;;;;5048690;28;20439;-80
2021/11/27 11:05:32;;;;;;;5.37;4.93;;;1.50;99.90;1.10;94636.00;;;;5047773;28;20471;-80
2021/11/27 11:08:32;;;;;;;6.53;4.83;;;1.50;99.90;1.20;94643.00;;;;5048372;28;20458;-80
2021/11/27 11:11:30;;;;;;;4.10;3.70;;;1.50;99.90;1.30;94637.00;;;;5048031;28;20427;-80
2021/11/27 11:14:28;;;;;;;3.80;3.47;;;1.70;99.90;1.30;94619.00;;;;5044644;28;20423;-79
2021/11/27 11:17:27;;;;;;;5.10;4.60;;;1.50;99.90;1.30;94621.00;;;;5035420;28;20451;-79
2021/11/27 11:20:23;;;;;;;4.90;4.10;;;1.50;99.90;1.30;94611.00;;;;5046416;28;20438;-81
2021/11/27 11:23:16;;;;;;;4.93;4.13;;;1.50;99.90;1.40;94608.00;;;;5044981;28;20431;-79
2021/11/27 11:26:11;;;;;;;4.13;3.73;;;1.50;99.90;1.40;94610.00;;;;5041910;28;20471;-81
2021/11/27 11:29:01;;;;;;;4.00;3.60;;;1.60;99.90;1.40;94618.00;;;;5048572;28;20531;-81
2021/11/27 11:31:49;;;;;;;4.17;3.87;;;1.70;99.90;1.40;94614.00;;;;5040632;28;20424;-81
2021/11/27 11:34:39;;;;;;;5.00;4.33;;;1.70;99.90;1.30;94611.00;;;;5047390;28;20455;-79
2021/11/27 11:37:29;;;;;;;5.30;4.80;;;1.60;99.90;1.30;94606.00;;;;5046226;28;20454;-80
2021/11/27 11:40:18;;;;;;;5.67;5.10;;;1.70;99.90;1.50;94599.00;;;;5043657;28;20443;-80
2021/11/27 11:43:08;;;;;;;7.30;4.93;;;1.70;99.90;1.60;94593.00;;;;5035370;28;20462;-79
2021/11/27 11:45:58;;;;;;;4.57;4.20;;;1.70;99.90;1.80;94583.00;;;;5043549;28;20480;-79
2021/11/27 11:48:51;;;;;;;7.87;5.83;;;1.80;99.90;1.90;94576.00;;;;5040416;28;20447;-80
2021/11/27 11:51:49;;;;;;;15.17;10.23;;;1.90;99.90;1.60;94592.00;;;;5047626;28;20794;-79
2021/11/27 11:54:39;;;;;;;5.90;5.30;;;1.80;99.90;1.70;94577.00;;;;5046476;28;20424;-80
2021/11/27 11:57:45;;;;;;;5.03;4.63;;;1.90;99.90;1.40;94597.00;;;;5048757;28;20474;-81
2021/11/27 12:00:37;;;;;;;5.37;4.33;;;1.90;99.90;1.80;94585.00;;;;5043743;28;20446;-80
2021/11/27 12:03:33;;;;;;;4.87;3.60;;;1.90;99.90;2.00;94571.00;;;;5049612;28;20455;-76
2021/11/27 12:06:27;;;;;;;4.33;3.83;;;2.00;99.90;2.40;94581.00;;;;5045575;28;20460;-79
2021/11/27 12:09:16;;;;;;;4.27;3.80;;;2.30;99.90;1.90;94579.00;;;;5050412;28;20458;-78
2021/11/27 12:12:20;;;;;;;5.30;3.87;;;2.30;99.90;2.80;94573.00;;;;5056272;28;20427;-78
2021/11/27 12:15:09;;;;;;;5.23;3.43;;;2.40;99.90;3.10;94569.00;;;;5048237;28;20435;-80
2021/11/27 12:18:11;;;;;;;3.97;3.50;;;2.70;99.90;3.10;94582.00;;;;5050218;28;20458;-80
2021/11/27 12:21:04;;;;;;;5.27;3.67;;;2.90;99.90;3.40;94585.00;;;;5050125;28;20419;-80
2021/11/27 12:23:53;;;;;;;5.17;4.70;;;3.10;99.90;3.40;94568.00;;;;5060356;28;20427;-81
2021/11/27 12:26:42;;;;;;;5.53;5.03;;;3.20;99.90;3.60;94562.00;;;;5047305;28;21027;-79
2021/11/27 12:29:31;;;;;;;7.67;4.73;;;3.40;99.90;4.00;94547.00;;;;5052591;28;20438;-80
2021/11/27 12:32:35;;;;;;;6.93;3.60;;;3.60;99.90;4.70;94593.00;;;;5044736;28;20197;-80
2021/11/27 12:35:41;;;;;;;4.10;3.80;;;4.10;99.90;5.40;94570.00;;;;5045658;28;20234;-80
2021/11/27 12:38:33;;;;;;;5.47;4.30;;;4.60;99.90;6.20;94585.00;;;;5049690;28;20227;-81
2021/11/27 12:41:26;;;;;;;6.47;4.73;;;5.30;99.90;6.10;94588.00;;;;5049090;28;20207;-81
2021/11/27 12:44:20;;;;;;;5.03;3.63;;;5.70;99.90;5.70;94597.00;;;;5049129;28;20197;-81
2021/11/27 12:47:32;;;;;;;5.73;4.23;;;5.80;99.90;5.70;94585.00;;;;5053674;28;20228;-81
2021/11/27 12:50:23;;;;;;;3.87;3.57;;;5.80;99.90;5.70;94588.00;;;;5053290;28;20203;-81
2021/11/27 12:53:12;;;;;;;3.37;3.07;;;5.90;99.90;6.60;94541.00;;;;5051126;28;20204;-81
2021/11/27 12:56:02;;;;;;;7.27;2.83;;;6.10;99.90;7.50;94529.00;;;;5056019;28;20201;-81